Time;durP1;ratioP1;P1;durP2;ratioP2;P2;SDS_P1;SDS_P2;PMS_P1;PMS_P2;Temp;Humidity;BMP_temperature;BMP_pressure;BME280_temperature;BME280_humidity;BME280_pressure;Samples;Min_cycle;Max_cycle;Signal;HPM_P1;HPM_P2
2023/05/29 00:00:13;;;;;;;;;;;12.70;74.90;;;;;;5091732;28;19908;-35
2023/05/29 00:02:44;;;;;;;;;;;12.60;74.80;;;;;;5094174;28;19908;-35
2023/05/29 00:05:11;;;;;;;;;;;12.60;74.80;;;;;;5095561;28;20371;-35
2023/05/29 00:07:37;;;;;;;;;;;12.60;75.00;;;;;;5095578;28;19908;-35
2023/05/29 00:10:03;;;;;;;;;;;12.50;74.70;;;;;;5095236;28;19977;-37
2023/05/29 00:12:29;;;;;;;;;;;12.50;74.70;;;;;;5095474;28;20112;-34
2023/05/29 00:14:54;;;;;;;;;;;12.50;74.70;;;;;;5095038;28;19908;-33
2023/05/29 00:17:20;;;;;;;;;;;12.50;74.90;;;;;;5095372;28;20006;-38
2023/05/29 00:19:45;;;;;;;;;;;12.40;74.80;;;;;;5095333;28;20003;-34
2023/05/29 00:22:12;;;;;;;;;;;12.40;74.80;;;;;;5094923;28;20441;-35
2023/05/29 00:24:37;;;;;;;;;;;12.40;75.00;;;;;;5094841;28;20205;-34
2023/05/29 00:27:03;;;;;;;;;;;12.40;74.90;;;;;;5095190;28;19919;-40
2023/05/29 00:29:29;;;;;;;;;;;12.40;74.90;;;;;;5094802;28;19920;-35
2023/05/29 00:31:55;;;;;;;;;;;12.30;74.80;;;;;;5094823;28;19908;-34
2023/05/29 00:34:22;;;;;;;;;;;12.30;74.80;;;;;;5095017;28;19908;-34
2023/05/29 00:36:47;;;;;;;;;;;12.30;74.70;;;;;;5094988;28;19991;-34
2023/05/29 00:39:13;;;;;;;;;;;12.20;74.50;;;;;;5094654;28;19955;-35
2023/05/29 00:41:39;;;;;;;;;;;12.20;74.60;;;;;;5094843;28;19915;-33
2023/05/29 00:44:04;;;;;;;;;;;12.20;74.40;;;;;;5094802;28;19908;-36
2023/05/29 00:46:31;;;;;;;;;;;12.20;74.30;;;;;;5094738;28;19908;-34
2023/05/29 00:48:57;;;;;;;;;;;12.20;74.10;;;;;;5094386;28;19959;-34
2023/05/29 00:51:23;;;;;;;;;;;12.20;74.10;;;;;;5094418;28;20006;-35
2023/05/29 00:53:50;;;;;;;;;;;12.20;73.90;;;;;;5094736;28;19948;-35
2023/05/29 00:56:17;;;;;;;;;;;12.20;73.90;;;;;;5094658;28;19908;-36
2023/05/29 00:58:42;;;;;;;;;;;12.20;73.80;;;;;;5094397;28;19944;-34
2023/05/29 01:01:08;;;;;;;;;;;12.20;73.80;;;;;;5094372;28;19951;-34
2023/05/29 01:03:35;;;;;;;;;;;12.20;73.60;;;;;;5094299;28;19914;-35
2023/05/29 01:06:01;;;;;;;;;;;12.20;73.60;;;;;;5076570;28;19908;-34
2023/05/29 01:08:26;;;;;;;;;;;12.20;73.40;;;;;;5094079;28;20413;-34
2023/05/29 01:10:56;;;;;;;;;;;12.20;73.40;;;;;;5094182;28;19916;-35
2023/05/29 01:13:23;;;;;;;;;;;12.20;73.30;;;;;;5093260;28;19915;-34
2023/05/29 01:15:59;;;;;;;;;;;12.20;73.30;;;;;;5094026;28;20057;-34
2023/05/29 01:18:27;;;;;;;;;;;12.10;73.30;;;;;;5094027;28;19912;-35
2023/05/29 01:21:11;;;;;;;;;;;12.10;73.20;;;;;;5094048;28;20287;-35
2023/05/29 01:23:46;;;;;;;;;;;12.10;73.30;;;;;;5093898;28;19946;-34
2023/05/29 01:26:22;;;;;;;;;;;12.00;73.20;;;;;;5093719;28;20249;-35
2023/05/29 01:28:51;;;;;;;;;;;12.00;73.40;;;;;;5093982;28;20356;-34
2023/05/29 01:31:21;;;;;;;;;;;12.00;73.20;;;;;;5093759;28;19998;-34
2023/05/29 01:33:53;;;;;;;;;;;12.00;73.20;;;;;;5093650;28;19945;-35
2023/05/29 01:36:19;;;;;;;;;;;12.00;73.20;;;;;;5093595;28;19913;-36
2023/05/29 01:38:45;;;;;;;;;;;12.00;73.20;;;;;;5093847;28;19915;-34
2023/05/29 01:41:11;;;;;;;;;;;11.90;73.20;;;;;;5093398;28;20360;-34
2023/05/29 01:43:37;;;;;;;;;;;11.90;73.20;;;;;;5093504;28;19943;-34
2023/05/29 01:46:02;;;;;;;;;;;11.90;73.30;;;;;;5093433;28;19986;-35
2023/05/29 01:48:28;;;;;;;;;;;11.90;73.50;;;;;;5093504;28;19908;-33
2023/05/29 01:50:54;;;;;;;;;;;11.80;73.50;;;;;;5093242;28;20324;-35
2023/05/29 01:53:20;;;;;;;;;;;11.80;73.60;;;;;;5093510;28;20247;-34
2023/05/29 01:55:46;;;;;;;;;;;11.80;73.60;;;;;;5093207;28;19998;-36
2023/05/29 01:58:12;;;;;;;;;;;11.80;73.70;;;;;;5093224;28;19908;-35
2023/05/29 02:00:38;;;;;;;;;;;11.70;73.80;;;;;;5093171;28;19912;-33
2023/05/29 02:03:03;;;;;;;;;;;11.70;73.90;;;;;;5093321;28;19908;-35
2023/05/29 02:05:29;;;;;;;;;;;11.60;73.90;;;;;;5093299;28;19908;-33
2023/05/29 02:07:54;;;;;;;;;;;11.60;74.10;;;;;;5092935;28;19915;-34
2023/05/29 02:10:20;;;;;;;;;;;11.50;74.20;;;;;;5093059;28;19920;-32
2023/05/29 02:12:46;;;;;;;;;;;11.50;74.30;;;;;;5092926;28;19945;-34
2023/05/29 02:15:11;;;;;;;;;;;11.50;74.40;;;;;;5092758;28;19961;-34
2023/05/29 02:17:37;;;;;;;;;;;11.50;74.90;;;;;;5093001;28;20344;-33
2023/05/29 02:20:04;;;;;;;;;;;11.40;74.90;;;;;;5092592;28;19908;-34
2023/05/29 02:22:29;;;;;;;;;;;11.40;75.00;;;;;;5092741;28;20364;-33
2023/05/29 02:24:55;;;;;;;;;;;11.30;75.40;;;;;;5092510;28;19920;-34
2023/05/29 02:27:20;;;;;;;;;;;11.30;75.70;;;;;;5092714;28;19958;-34
2023/05/29 02:29:46;;;;;;;;;;;11.20;75.80;;;;;;5092628;28;19916;-33
2023/05/29 02:32:11;;;;;;;;;;;11.20;75.60;;;;;;5092559;28;19919;-34
2023/05/29 02:34:37;;;;;;;;;;;11.20;75.70;;;;;;5092515;28;19957;-34
2023/05/29 02:37:02;;;;;;;;;;;11.20;76.30;;;;;;5092442;28;20003;-34
2023/05/29 02:39:28;;;;;;;;;;;11.20;75.70;;;;;;5074513;28;19908;-34
2023/05/29 02:41:54;;;;;;;;;;;11.10;75.80;;;;;;5092446;28;19908;-34
2023/05/29 02:44:20;;;;;;;;;;;11.10;76.00;;;;;;5092656;28;19908;-34
2023/05/29 02:46:45;;;;;;;;;;;11.10;75.90;;;;;;5074265;28;19992;-34
2023/05/29 02:49:11;;;;;;;;;;;11.10;76.00;;;;;;5092265;28;19908;-34
2023/05/29 02:51:37;;;;;;;;;;;11.10;76.30;;;;;;5092376;28;19908;-34
2023/05/29 02:54:02;;;;;;;;;;;11.00;76.20;;;;;;5092405;28;19924;-35
2023/05/29 02:56:28;;;;;;;;;;;11.00;76.50;;;;;;5092318;28;20006;-34
2023/05/29 02:58:53;;;;;;;;;;;11.00;76.60;;;;;;5092256;28;19916;-33
2023/05/29 03:01:19;;;;;;;;;;;10.90;76.60;;;;;;5092088;28;20441;-35
2023/05/29 03:03:44;;;;;;;;;;;10.90;76.60;;;;;;5092209;28;19953;-34
2023/05/29 03:06:12;;;;;;;;;;;10.90;76.60;;;;;;5092185;28;20352;-35
2023/05/29 03:08:40;;;;;;;;;;;10.90;77.10;;;;;;5092126;28;19912;-33
2023/05/29 03:11:11;;;;;;;;;;;10.90;76.90;;;;;;5092095;28;19913;-34
2023/05/29 03:13:37;;;;;;;;;;;10.80;77.70;;;;;;5092049;28;20337;-34
2023/05/29 03:16:02;;;;;;;;;;;10.80;78.10;;;;;;5092038;28;19912;-34
2023/05/29 03:18:28;;;;;;;;;;;10.70;77.30;;;;;;5092429;28;19909;-34
2023/05/29 03:20:53;;;;;;;;;;;10.70;77.40;;;;;;5092051;28;19912;-34
2023/05/29 03:23:19;;;;;;;;;;;10.60;77.90;;;;;;5091851;28;19924;-33
2023/05/29 03:25:45;;;;;;;;;;;10.60;77.80;;;;;;5092054;28;19912;-34
2023/05/29 03:28:10;;;;;;;;;;;10.60;77.80;;;;;;5091966;28;20053;-33
2023/05/29 03:30:36;;;;;;;;;;;10.50;77.90;;;;;;5091950;28;20388;-33
2023/05/29 03:33:03;;;;;;;;;;;10.60;78.20;;;;;;5091991;28;19923;-35
2023/05/29 03:35:29;;;;;;;;;;;10.50;78.20;;;;;;5091877;28;19912;-33
2023/05/29 03:37:54;;;;;;;;;;;10.50;78.40;;;;;;5095162;28;20375;-34
2023/05/29 03:40:20;;;;;;;;;;;10.50;78.40;;;;;;5095764;28;20007;-33
2023/05/29 03:42:46;;;;;;;;;;;10.50;78.20;;;;;;5096109;28;19935;-35
2023/05/29 03:45:11;;;;;;;;;;;10.50;78.80;;;;;;5095714;28;19934;-33
2023/05/29 03:47:36;;;;;;;;;;;10.50;79.10;;;;;;5095694;28;19916;-33
2023/05/29 03:50:02;;;;;;;;;;;10.50;78.40;;;;;;5095659;28;19920;-34
2023/05/29 03:52:27;;;;;;;;;;;10.50;78.20;;;;;;5095673;28;19998;-33
2023/05/29 03:54:53;;;;;;;;;;;10.50;78.40;;;;;;5095576;28;20314;-35
2023/05/29 03:57:18;;;;;;;;;;;10.50;78.30;;;;;;5095553;28;19916;-33
2023/05/29 03:59:44;;;;;;;;;;;10.50;78.10;;;;;;5095472;28;19957;-34
2023/05/29 04:02:10;;;;;;;;;;;10.50;78.00;;;;;;5095388;28;20299;-34
2023/05/29 04:04:35;;;;;;;;;;;10.60;78.00;;;;;;5095617;28;19912;-35
2023/05/29 04:07:01;;;;;;;;;;;10.60;78.00;;;;;;5095462;28;19912;-34
2023/05/29 04:09:26;;;;;;;;;;;10.60;77.90;;;;;;5095228;28;19927;-33
2023/05/29 04:11:52;;;;;;;;;;;10.60;77.70;;;;;;5095321;28;19916;-33
2023/05/29 04:14:17;;;;;;;;;;;10.70;77.60;;;;;;5095250;28;20022;-33
2023/05/29 04:16:43;;;;;;;;;;;10.70;77.60;;;;;;5077418;28;19912;-35
2023/05/29 04:19:08;;;;;;;;;;;10.70;77.70;;;;;;5095103;28;20353;-33
2023/05/29 04:21:34;;;;;;;;;;;10.70;77.60;;;;;;5095048;28;19918;-35
2023/05/29 04:24:00;;;;;;;;;;;10.70;77.60;;;;;;5094862;28;19920;-33
2023/05/29 04:26:25;;;;;;;;;;;10.70;77.60;;;;;;5095411;28;19912;-34
2023/05/29 04:28:57;;;;;;;;;;;10.70;77.50;;;;;;5095022;28;19955;-35
2023/05/29 04:31:24;;;;;;;;;;;10.70;77.40;;;;;;5094817;28;20000;-34
2023/05/29 04:33:53;;;;;;;;;;;10.70;77.50;;;;;;5094956;28;19913;-32
2023/05/29 04:36:23;;;;;;;;;;;10.80;77.70;;;;;;5095099;28;20393;-33
2023/05/29 04:38:50;;;;;;;;;;;10.80;77.50;;;;;;5095045;28;19952;-33
2023/05/29 04:41:16;;;;;;;;;;;10.70;77.50;;;;;;5095069;28;19916;-32
2023/05/29 04:43:41;;;;;;;;;;;10.80;77.40;;;;;;5094754;28;20391;-33
2023/05/29 04:46:12;;;;;;;;;;;10.70;77.30;;;;;;5094726;28;19912;-34
2023/05/29 04:48:40;;;;;;;;;;;10.80;77.50;;;;;;5093649;28;19912;-36
2023/05/29 04:51:06;;;;;;;;;;;10.80;77.40;;;;;;5094522;28;19989;-35
2023/05/29 04:53:32;;;;;;;;;;;10.80;77.40;;;;;;5094685;28;19916;-34
2023/05/29 04:55:58;;;;;;;;;;;10.80;77.50;;;;;;5094590;28;19949;-34
2023/05/29 04:58:26;;;;;;;;;;;10.80;77.40;;;;;;5094373;28;19955;-34
2023/05/29 05:00:51;;;;;;;;;;;10.80;77.30;;;;;;5094368;28;19912;-34
2023/05/29 05:03:17;;;;;;;;;;;10.80;77.40;;;;;;5094375;28;19912;-34
2023/05/29 05:05:43;;;;;;;;;;;10.90;77.20;;;;;;5094296;28;19911;-35
2023/05/29 05:08:09;;;;;;;;;;;10.90;77.20;;;;;;5094471;28;19912;-34
2023/05/29 05:10:35;;;;;;;;;;;10.90;77.10;;;;;;5093980;28;19916;-34
2023/05/29 05:13:02;;;;;;;;;;;10.90;77.00;;;;;;5094050;28;19912;-34
2023/05/29 05:15:28;;;;;;;;;;;10.90;77.00;;;;;;5094068;28;19950;-33
2023/05/29 05:17:53;;;;;;;;;;;10.90;76.90;;;;;;5094049;28;19951;-33
2023/05/29 05:20:19;;;;;;;;;;;11.00;77.00;;;;;;5075806;28;19935;-33
2023/05/29 05:22:45;;;;;;;;;;;11.00;76.80;;;;;;5094093;28;19912;-35
2023/05/29 05:25:11;;;;;;;;;;;11.00;76.70;;;;;;5093702;28;19965;-35
2023/05/29 05:27:37;;;;;;;;;;;11.00;76.80;;;;;;5094545;28;19912;-35
2023/05/29 05:30:06;;;;;;;;;;;11.00;76.60;;;;;;5093791;28;20290;-37
2023/05/29 05:32:32;;;;;;;;;;;11.00;76.50;;;;;;5093781;28;19922;-34
2023/05/29 05:34:57;;;;;;;;;;;11.00;76.40;;;;;;5093629;28;19912;-35
2023/05/29 05:37:23;;;;;;;;;;;11.10;76.30;;;;;;5093358;28;19916;-34
2023/05/29 05:39:49;;;;;;;;;;;11.10;76.20;;;;;;5093814;28;19919;-33
2023/05/29 05:42:15;;;;;;;;;;;11.10;76.10;;;;;;5093465;28;19958;-34
2023/05/29 05:44:41;;;;;;;;;;;11.20;76.00;;;;;;5093017;28;19915;-34
2023/05/29 05:47:06;;;;;;;;;;;11.20;75.90;;;;;;5093233;28;20010;-34
2023/05/29 05:49:31;;;;;;;;;;;11.30;75.70;;;;;;5075256;28;20019;-34
2023/05/29 05:51:57;;;;;;;;;;;11.30;75.50;;;;;;5093406;28;19916;-35
2023/05/29 05:54:22;;;;;;;;;;;11.30;75.40;;;;;;5093340;28;19912;-34
2023/05/29 05:56:48;;;;;;;;;;;11.40;75.40;;;;;;5093328;28;19958;-33
2023/05/29 05:59:13;;;;;;;;;;;11.40;75.20;;;;;;5092815;28;19918;-35
2023/05/29 06:01:41;;;;;;;;;;;11.40;75.10;;;;;;5093305;28;19919;-34
2023/05/29 06:04:06;;;;;;;;;;;11.50;75.50;;;;;;5093103;28;19912;-36
2023/05/29 06:06:32;;;;;;;;;;;11.50;74.80;;;;;;5093452;28;19966;-34
2023/05/29 06:08:58;;;;;;;;;;;11.60;74.60;;;;;;5093227;28;19912;-41
2023/05/29 06:11:25;;;;;;;;;;;11.60;74.20;;;;;;5093168;28;19923;-34
2023/05/29 06:13:51;;;;;;;;;;;11.60;74.20;;;;;;5093370;28;19998;-35
2023/05/29 06:16:17;;;;;;;;;;;11.70;74.00;;;;;;5092892;28;19944;-33
2023/05/29 06:18:42;;;;;;;;;;;11.70;73.90;;;;;;5092851;28;19966;-33
2023/05/29 06:21:09;;;;;;;;;;;11.70;73.80;;;;;;5092789;28;19919;-35
2023/05/29 06:23:36;;;;;;;;;;;11.80;73.30;;;;;;5074672;28;20342;-35
2023/05/29 06:26:03;;;;;;;;;;;11.80;73.00;;;;;;5092701;28;20389;-34
2023/05/29 06:28:28;;;;;;;;;;;11.80;73.00;;;;;;5092878;28;19912;-34
2023/05/29 06:30:54;;;;;;;;;;;11.90;72.60;;;;;;5092692;28;19923;-35
2023/05/29 06:33:21;;;;;;;;;;;11.90;72.80;;;;;;5092716;28;19947;-35
2023/05/29 06:35:46;;;;;;;;;;;11.90;72.50;;;;;;5092666;28;19916;-35
2023/05/29 06:38:13;;;;;;;;;;;12.00;72.40;;;;;;5092475;28;20464;-34
2023/05/29 06:40:38;;;;;;;;;;;12.10;72.30;;;;;;5092677;28;19919;-34
2023/05/29 06:43:04;;;;;;;;;;;12.10;72.20;;;;;;5092876;28;19912;-34
2023/05/29 06:45:30;;;;;;;;;;;12.20;71.50;;;;;;5092665;28;19991;-34
2023/05/29 06:47:55;;;;;;;;;;;12.30;71.40;;;;;;5092593;28;19912;-35
2023/05/29 06:50:21;;;;;;;;;;;12.30;71.50;;;;;;5092526;28;19916;-34
2023/05/29 06:52:47;;;;;;;;;;;12.40;71.10;;;;;;5092536;28;20395;-34
2023/05/29 06:55:12;;;;;;;;;;;12.40;71.00;;;;;;5074319;28;19922;-35
2023/05/29 06:57:37;;;;;;;;;;;12.50;70.90;;;;;;5092410;28;19920;-35
2023/05/29 07:00:07;;;;;;;;;;;12.50;70.90;;;;;;5092151;28;19916;-34
2023/05/29 07:02:33;;;;;;;;;;;12.60;70.50;;;;;;5092359;28;19912;-35
2023/05/29 07:04:58;;;;;;;;;;;12.70;70.50;;;;;;5092299;28;19958;-34
2023/05/29 07:07:24;;;;;;;;;;;12.80;70.20;;;;;;5092318;28;19961;-34
2023/05/29 07:09:49;;;;;;;;;;;12.80;70.00;;;;;;5092153;28;19938;-35
2023/05/29 07:12:15;;;;;;;;;;;12.90;69.60;;;;;;5094509;28;19962;-36
2023/05/29 07:14:40;;;;;;;;;;;12.90;69.80;;;;;;5096516;28;20017;-34
2023/05/29 07:17:06;;;;;;;;;;;13.00;69.30;;;;;;5096700;28;20371;-35
2023/05/29 07:19:33;;;;;;;;;;;13.00;69.40;;;;;;5096223;28;19916;-34
2023/05/29 07:21:59;;;;;;;;;;;13.10;68.60;;;;;;5096385;28;19912;-32
2023/05/29 07:24:25;;;;;;;;;;;13.10;68.40;;;;;;5096025;28;20024;-34
2023/05/29 07:26:50;;;;;;;;;;;13.10;67.90;;;;;;5096263;28;20679;-34
2023/05/29 07:29:17;;;;;;;;;;;13.10;68.40;;;;;;5096263;28;19912;-35
2023/05/29 07:31:44;;;;;;;;;;;13.20;67.40;;;;;;5096091;28;20375;-34
2023/05/29 07:34:10;;;;;;;;;;;13.20;67.60;;;;;;5096145;28;19919;-36
2023/05/29 07:36:35;;;;;;;;;;;13.30;67.30;;;;;;5096427;28;20287;-35
2023/05/29 07:39:02;;;;;;;;;;;13.30;67.30;;;;;;5096024;28;19918;-33
2023/05/29 07:41:27;;;;;;;;;;;13.40;67.20;;;;;;5095960;28;19912;-35
2023/05/29 07:43:53;;;;;;;;;;;13.40;67.30;;;;;;5095792;28;20088;-34
2023/05/29 07:46:18;;;;;;;;;;;13.50;66.60;;;;;;5077652;28;19946;-31
2023/05/29 07:48:46;;;;;;;;;;;13.60;67.20;;;;;;5095790;28;20398;-33
2023/05/29 07:51:11;;;;;;;;;;;13.60;66.50;;;;;;5095595;28;19916;-30
2023/05/29 07:53:37;;;;;;;;;;;13.60;66.30;;;;;;5095705;28;19919;-34
2023/05/29 07:56:02;;;;;;;;;;;13.70;66.40;;;;;;5095594;28;20054;-35
2023/05/29 07:58:28;;;;;;;;;;;13.80;66.20;;;;;;5095635;28;19912;-30
2023/05/29 08:00:53;;;;;;;;;;;13.90;65.90;;;;;;5095496;28;20003;-32
2023/05/29 08:03:19;;;;;;;;;;;13.90;65.80;;;;;;5095627;28;19912;-31
2023/05/29 08:05:45;;;;;;;;;;;14.00;65.30;;;;;;5095431;28;19912;-40
2023/05/29 08:08:12;;;;;;;;;;;14.00;65.40;;;;;;5095537;28;19912;-31
2023/05/29 08:10:38;;;;;;;;;;;14.00;65.40;;;;;;5095332;28;20287;-30
2023/05/29 08:13:04;;;;;;;;;;;14.10;65.50;;;;;;5095513;28;19912;-37
2023/05/29 08:15:31;;;;;;;;;;;14.10;65.00;;;;;;5095284;28;20225;-34
2023/05/29 08:17:56;;;;;;;;;;;14.20;64.50;;;;;;5076961;28;20027;-31
2023/05/29 08:20:22;;;;;;;;;;;14.20;64.60;;;;;;5095126;28;19955;-31
2023/05/29 08:22:47;;;;;;;;;;;14.30;64.50;;;;;;5094839;28;20284;-37
2023/05/29 08:25:13;;;;;;;;;;;14.30;64.40;;;;;;5094874;28;19969;-33
2023/05/29 08:27:38;;;;;;;;;;;14.40;64.70;;;;;;5095074;28;19947;-34
2023/05/29 08:30:04;;;;;;;;;;;14.50;64.10;;;;;;5094764;28;19923;-33
2023/05/29 08:32:29;;;;;;;;;;;14.60;64.60;;;;;;5076683;28;20284;-34
2023/05/29 08:34:55;;;;;;;;;;;14.70;64.50;;;;;;5094886;28;19920;-32
2023/05/29 08:37:21;;;;;;;;;;;14.80;63.70;;;;;;5094762;28;19919;-32
2023/05/29 08:39:46;;;;;;;;;;;14.80;63.20;;;;;;5076523;28;20009;-31
2023/05/29 08:42:14;;;;;;;;;;;14.90;62.40;;;;;;5076456;28;19916;-34
2023/05/29 08:44:40;;;;;;;;;;;14.90;62.60;;;;;;5094859;28;19912;-29
2023/05/29 08:47:06;;;;;;;;;;;14.90;62.60;;;;;;5094596;28;20284;-31
2023/05/29 08:49:42;;;;;;;;;;;14.90;62.30;;;;;;5094585;28;19927;-33
2023/05/29 08:52:16;;;;;;;;;;;15.00;63.10;;;;;;5094535;28;20041;-31
2023/05/29 08:54:41;;;;;;;;;;;15.10;60.90;;;;;;5094620;28;19988;-34
2023/05/29 08:57:07;;;;;;;;;;;15.10;61.30;;;;;;5094589;28;19916;-32
2023/05/29 08:59:34;;;;;;;;;;;15.20;61.50;;;;;;5094640;28;20379;-31
2023/05/29 09:02:00;;;;;;;;;;;15.30;61.70;;;;;;5094443;28;19912;-31
2023/05/29 09:04:28;;;;;;;;;;;15.50;60.50;;;;;;5094374;28;19982;-33
2023/05/29 09:06:55;;;;;;;;;;;15.60;60.90;;;;;;5094250;28;19919;-38
2023/05/29 09:09:20;;;;;;;;;;;15.70;59.60;;;;;;5093989;28;20208;-36
2023/05/29 09:11:46;;;;;;;;;;;15.70;59.50;;;;;;5094119;28;20006;-33
2023/05/29 09:14:33;;;;;;;;;;;15.70;59.70;;;;;;5094209;28;19924;-37
2023/05/29 09:16:59;;;;;;;;;;;15.80;59.40;;;;;;5075940;28;19912;-32
2023/05/29 09:19:25;;;;;;;;;;;15.80;59.00;;;;;;5094157;28;20270;-33
2023/05/29 09:21:51;;;;;;;;;;;15.80;58.60;;;;;;5094033;28;19912;-41
2023/05/29 09:24:16;;;;;;;;;;;15.90;59.20;;;;;;5093664;28;20299;-38
2023/05/29 09:26:49;;;;;;;;;;;15.90;59.40;;;;;;5075761;28;20410;-35
2023/05/29 09:29:15;;;;;;;;;;;16.00;59.50;;;;;;5093889;28;19911;-42
2023/05/29 09:31:47;;;;;;;;;;;16.00;59.60;;;;;;5093959;28;20394;-45
2023/05/29 09:34:13;;;;;;;;;;;16.10;59.50;;;;;;5092987;28;19912;-44
2023/05/29 09:36:38;;;;;;;;;;;16.10;59.50;;;;;;5093805;28;19919;-45
2023/05/29 09:39:04;;;;;;;;;;;16.20;59.40;;;;;;5093738;28;19965;-42
2023/05/29 09:41:33;;;;;;;;;;;16.20;59.80;;;;;;5093772;28;19948;-43
2023/05/29 09:44:00;;;;;;;;;;;16.30;59.60;;;;;;5093564;28;19965;-36
2023/05/29 09:46:26;;;;;;;;;;;16.40;59.30;;;;;;5093687;28;20004;-37
2023/05/29 09:48:51;;;;;;;;;;;16.50;59.60;;;;;;5093474;28;20380;-34
2023/05/29 09:51:24;;;;;;;;;;;16.60;59.50;;;;;;5093285;28;19920;-36
2023/05/29 09:53:53;;;;;;;;;;;16.70;59.30;;;;;;5093528;28;19974;-35
2023/05/29 09:56:22;;;;;;;;;;;16.80;59.20;;;;;;5075188;28;20360;-37
2023/05/29 09:58:48;;;;;;;;;;;16.90;58.30;;;;;;5093295;28;19913;-37
2023/05/29 10:01:17;;;;;;;;;;;17.00;58.70;;;;;;5093318;28;19918;-35
2023/05/29 10:03:43;;;;;;;;;;;17.00;59.20;;;;;;5093301;28;20384;-35
2023/05/29 10:06:11;;;;;;;;;;;17.10;58.50;;;;;;5093054;28;19969;-36
2023/05/29 10:08:37;;;;;;;;;;;17.20;58.70;;;;;;5093151;28;19912;-36
2023/05/29 10:11:09;;;;;;;;;;;17.30;57.70;;;;;;5092685;28;19916;-36
2023/05/29 10:13:41;;;;;;;;;;;17.30;57.20;;;;;;5092930;28;19912;-35
2023/05/29 10:16:12;;;;;;;;;;;17.20;57.70;;;;;;5092922;28;19960;-36
2023/05/29 10:18:39;;;;;;;;;;;17.20;57.50;;;;;;5074686;28;19912;-37
2023/05/29 10:21:06;;;;;;;;;;;17.30;57.50;;;;;;5092738;28;19912;-35
2023/05/29 10:23:33;;;;;;;;;;;17.40;57.60;;;;;;5092724;28;19912;-36
2023/05/29 10:26:06;;;;;;;;;;;17.40;56.90;;;;;;5074603;28;19923;-36
2023/05/29 10:28:32;;;;;;;;;;;17.50;56.80;;;;;;5092931;28;19912;-37
2023/05/29 10:30:58;;;;;;;;;;;17.60;57.20;;;;;;5092874;28;19923;-36
2023/05/29 10:33:42;;;;;;;;;;;17.70;56.30;;;;;;5092672;28;20315;-34
2023/05/29 10:36:14;;;;;;;;;;;17.80;55.50;;;;;;5092759;28;20002;-37
2023/05/29 10:38:41;;;;;;;;;;;17.80;54.80;;;;;;5074605;28;19912;-36
2023/05/29 10:41:29;;;;;;;;;;;17.90;55.70;;;;;;5092612;28;19912;-35
2023/05/29 10:43:55;;;;;;;;;;;18.00;55.30;;;;;;5079312;28;19912;-35
2023/05/29 10:46:21;;;;;;;;;;;18.00;54.70;;;;;;5092566;28;19912;-35
2023/05/29 10:48:49;;;;;;;;;;;18.10;54.50;;;;;;5092605;28;19916;-35
2023/05/29 10:51:25;;;;;;;;;;;18.10;53.80;;;;;;5074312;28;19924;-35
2023/05/29 10:53:51;;;;;;;;;;;18.20;54.10;;;;;;5092500;28;19939;-35
2023/05/29 10:56:22;;;;;;;;;;;18.10;54.10;;;;;;5092475;28;20253;-36
2023/05/29 10:58:52;;;;;;;;;;;18.20;53.20;;;;;;5092571;28;20268;-36
2023/05/29 11:01:20;;;;;;;;;;;18.20;53.60;;;;;;5074308;28;19916;-36
2023/05/29 11:03:47;;;;;;;;;;;18.30;54.10;;;;;;5092554;28;19912;-36
2023/05/29 11:06:20;;;;;;;;;;;18.30;52.80;;;;;;5092362;28;19920;-35
2023/05/29 11:08:46;;;;;;;;;;;18.40;53.70;;;;;;5092335;28;19943;-37
2023/05/29 11:11:12;;;;;;;;;;;18.40;53.20;;;;;;5092444;28;20462;-33
2023/05/29 11:13:40;;;;;;;;;;;18.40;53.60;;;;;;5092443;28;19919;-36
2023/05/29 11:16:25;;;;;;;;;;;18.50;52.70;;;;;;5092343;28;19921;-36
2023/05/29 11:18:51;;;;;;;;;;;18.40;52.10;;;;;;5092432;28;19912;-36
2023/05/29 11:21:36;;;;;;;;;;;18.50;52.30;;;;;;5092375;28;19965;-35
2023/05/29 11:24:06;;;;;;;;;;;18.50;53.00;;;;;;5092177;28;19923;-35
2023/05/29 11:26:32;;;;;;;;;;;18.50;51.50;;;;;;5092242;28;20431;-36
2023/05/29 11:29:01;;;;;;;;;;;18.60;51.40;;;;;;5092316;28;19912;-37
2023/05/29 11:31:27;;;;;;;;;;;18.60;51.10;;;;;;5092052;28;19955;-36
2023/05/29 11:33:54;;;;;;;;;;;18.60;51.70;;;;;;5092417;28;19923;-35
2023/05/29 11:36:21;;;;;;;;;;;18.80;52.00;;;;;;5092080;28;19995;-35
2023/05/29 11:38:47;;;;;;;;;;;18.90;50.90;;;;;;5092117;28;19919;-40
2023/05/29 11:41:12;;;;;;;;;;;19.00;50.80;;;;;;5092180;28;19916;-36
2023/05/29 11:43:38;;;;;;;;;;;19.10;51.40;;;;;;5092056;28;20003;-38
2023/05/29 11:46:15;;;;;;;;;;;19.20;50.90;;;;;;5092218;28;20148;-36
2023/05/29 11:48:49;;;;;;;;;;;19.20;50.80;;;;;;5092257;28;20005;-36
2023/05/29 11:51:15;;;;;;;;;;;19.30;50.20;;;;;;5092127;28;19916;-37
2023/05/29 11:53:42;;;;;;;;;;;19.30;49.50;;;;;;5091894;28;19918;-35
2023/05/29 11:56:08;;;;;;;;;;;19.20;50.50;;;;;;5091702;28;19920;-37
2023/05/29 11:58:34;;;;;;;;;;;19.30;50.10;;;;;;5094385;28;20430;-35
2023/05/29 12:01:00;;;;;;;;;;;19.30;50.20;;;;;;5095807;28;20239;-37
2023/05/29 12:03:25;;;;;;;;;;;19.30;51.20;;;;;;5095631;28;20006;-33
2023/05/29 12:05:55;;;;;;;;;;;19.50;50.70;;;;;;5095558;28;19912;-36
2023/05/29 12:08:24;;;;;;;;;;;19.60;49.40;;;;;;5095514;28;19920;-36
2023/05/29 12:10:50;;;;;;;;;;;19.60;49.30;;;;;;5095342;28;19923;-35
2023/05/29 12:13:18;;;;;;;;;;;19.70;50.00;;;;;;5095257;28;19912;-35
2023/05/29 12:15:44;;;;;;;;;;;19.70;48.00;;;;;;5095174;28;20485;-36
2023/05/29 12:18:10;;;;;;;;;;;19.60;47.60;;;;;;5095297;28;19912;-36
2023/05/29 12:20:35;;;;;;;;;;;19.60;48.20;;;;;;5095083;28;20291;-34
2023/05/29 12:23:01;;;;;;;;;;;19.60;48.90;;;;;;5095063;28;19912;-35
2023/05/29 12:25:27;;;;;;;;;;;19.70;49.10;;;;;;5094930;28;19920;-36
2023/05/29 12:27:55;;;;;;;;;;;19.80;48.10;;;;;;5095018;28;19912;-33
2023/05/29 12:30:21;;;;;;;;;;;19.90;48.00;;;;;;5095044;28;20020;-33
2023/05/29 12:32:48;;;;;;;;;;;19.80;47.60;;;;;;5094913;28;19912;-36
2023/05/29 12:35:17;;;;;;;;;;;19.70;47.00;;;;;;5095076;28;19960;-36
2023/05/29 12:37:47;;;;;;;;;;;19.80;47.20;;;;;;5094681;28;19920;-33
2023/05/29 12:40:19;;;;;;;;;;;19.80;47.40;;;;;;5094789;28;19923;-37
2023/05/29 12:42:46;;;;;;;;;;;19.80;46.20;;;;;;5094730;28;19923;-35
2023/05/29 12:45:12;;;;;;;;;;;19.80;47.10;;;;;;5076428;28;19914;-34
2023/05/29 12:47:37;;;;;;;;;;;19.70;46.50;;;;;;5094587;28;20012;-36
2023/05/29 12:50:22;;;;;;;;;;;19.70;47.00;;;;;;5076302;28;19972;-34
2023/05/29 12:53:00;;;;;;;;;;;19.70;47.40;;;;;;5094617;28;19916;-37
2023/05/29 12:55:27;;;;;;;;;;;19.80;47.80;;;;;;5094479;28;20359;-35
2023/05/29 12:57:53;;;;;;;;;;;19.80;47.30;;;;;;5076400;28;19916;-34
2023/05/29 13:00:19;;;;;;;;;;;19.90;47.00;;;;;;5094537;28;19981;-37
2023/05/29 13:02:45;;;;;;;;;;;19.80;47.80;;;;;;5094502;28;19916;-34
2023/05/29 13:05:11;;;;;;;;;;;19.90;47.60;;;;;;5094202;28;19912;-34
2023/05/29 13:07:37;;;;;;;;;;;19.90;47.70;;;;;;5094308;28;19923;-35
2023/05/29 13:10:02;;;;;;;;;;;20.00;47.20;;;;;;5092835;28;19923;-36
2023/05/29 13:12:28;;;;;;;;;;;20.00;45.80;;;;;;5094178;28;19920;-35
2023/05/29 13:14:55;;;;;;;;;;;20.00;46.40;;;;;;5094196;28;19935;-36
2023/05/29 13:17:21;;;;;;;;;;;20.00;46.50;;;;;;5075784;28;19912;-35
2023/05/29 13:19:47;;;;;;;;;;;20.10;46.20;;;;;;5075908;28;20344;-35
2023/05/29 13:22:12;;;;;;;;;;;20.20;46.60;;;;;;5094452;28;20014;-36
2023/05/29 13:24:38;;;;;;;;;;;20.40;47.50;;;;;;5093973;28;19924;-35
2023/05/29 13:27:03;;;;;;;;;;;20.50;44.90;;;;;;5093884;28;19912;-35
2023/05/29 13:29:29;;;;;;;;;;;20.60;45.30;;;;;;5093776;28;20272;-36
2023/05/29 13:31:54;;;;;;;;;;;20.70;44.50;;;;;;5093819;28;19915;-36
2023/05/29 13:34:22;;;;;;;;;;;20.60;44.20;;;;;;5075522;28;19912;-35
2023/05/29 13:36:49;;;;;;;;;;;20.60;44.50;;;;;;5093359;28;20468;-36
2023/05/29 13:39:15;;;;;;;;;;;20.60;44.00;;;;;;5093600;28;19962;-34
2023/05/29 13:41:40;;;;;;;;;;;20.60;44.90;;;;;;5093552;28;19931;-36
2023/05/29 13:44:06;;;;;;;;;;;20.70;43.50;;;;;;5093587;28;19916;-34
2023/05/29 13:46:31;;;;;;;;;;;20.70;43.80;;;;;;5093804;28;19947;-35
2023/05/29 13:48:57;;;;;;;;;;;20.60;43.60;;;;;;5093423;28;19954;-34
2023/05/29 13:51:22;;;;;;;;;;;20.60;44.00;;;;;;5093396;28;19938;-35
2023/05/29 13:53:48;;;;;;;;;;;20.60;43.40;;;;;;5093349;28;19912;-36
2023/05/29 13:56:13;;;;;;;;;;;20.60;43.30;;;;;;5093415;28;20360;-36
2023/05/29 13:58:40;;;;;;;;;;;20.70;43.00;;;;;;5093262;28;19912;-36
2023/05/29 14:01:05;;;;;;;;;;;20.80;43.50;;;;;;5093065;28;19912;-33
2023/05/29 14:03:31;;;;;;;;;;;20.90;42.70;;;;;;5093397;28;19912;-36
2023/05/29 14:05:57;;;;;;;;;;;20.90;43.10;;;;;;5092925;28;20304;-34
2023/05/29 14:08:22;;;;;;;;;;;21.00;43.70;;;;;;5093144;28;19912;-34
2023/05/29 14:10:48;;;;;;;;;;;21.10;44.00;;;;;;5092993;28;19916;-38
2023/05/29 14:13:13;;;;;;;;;;;21.30;44.20;;;;;;5093132;28;19912;-35